createdAt,value
2017-05-01T00:00:04.185Z,8.76
2017-05-01T00:00:08.262Z,8.61
2017-05-01T00:00:12.693Z,8.63
2017-05-01T00:00:17.024Z,8.71
2017-05-01T00:00:21.456Z,8.58
2017-05-01T00:00:25.641Z,8.65
2017-05-01T00:00:30.072Z,8.61
2017-05-01T00:00:34.497Z,8.75
2017-05-01T00:00:38.845Z,8.75
2017-05-01T00:00:43.268Z,8.64
2017-05-01T00:00:47.460Z,8.65
2017-05-01T00:00:51.891Z,8.68
2017-05-01T00:00:56.361Z,8.73
2017-05-01T00:01:00.783Z,8.67
2017-05-01T00:01:05.203Z,8.75
2017-05-01T00:01:09.526Z,8.63
2017-05-01T00:01:13.875Z,8.68
2017-05-01T00:01:18.299Z,8.65
2017-05-01T00:01:22.728Z,8.73
2017-05-01T00:01:27.156Z,8.68
2017-05-01T00:01:31.587Z,8.75
2017-05-01T00:01:36.009Z,8.71
2017-05-01T00:01:40.436Z,8.58
2017-05-01T00:01:44.866Z,8.73
2017-05-01T00:01:49.292Z,8.71
2017-05-01T00:01:53.716Z,8.7
2017-05-01T00:01:58.146Z,8.65
2017-05-01T00:02:02.488Z,8.68
2017-05-01T00:02:06.794Z,8.76
2017-05-01T00:02:11.100Z,8.64
2017-05-01T00:02:15.293Z,8.71
2017-05-01T00:02:19.729Z,8.68
2017-05-01T00:02:24.154Z,8.73
2017-05-01T00:02:28.581Z,8.71
2017-05-01T00:02:33.008Z,8.7
2017-05-01T00:02:37.438Z,8.64
2017-05-01T00:02:41.864Z,8.73
2017-05-01T00:02:46.293Z,8.64
2017-05-01T00:02:50.717Z,8.71
2017-05-01T00:02:55.150Z,8.68
2017-05-01T00:02:59.583Z,8.65
2017-05-01T00:03:03.915Z,8.58
2017-05-01T00:03:08.230Z,8.76
2017-05-01T00:03:12.676Z,8.67
2017-05-01T00:03:16.873Z,8.71
2017-05-01T00:03:21.298Z,8.71
2017-05-01T00:03:25.737Z,8.71
2017-05-01T00:03:30.178Z,8.68
2017-05-01T00:03:34.496Z,8.65
2017-05-01T00:03:38.935Z,8.67
2017-05-01T00:03:43.247Z,8.68
2017-05-01T00:03:47.609Z,8.71
2017-05-01T00:03:52.040Z,8.73
2017-05-01T00:03:56.483Z,8.73
2017-05-01T00:04:00.911Z,8.63
2017-05-01T00:04:05.224Z,8.71
2017-05-01T00:04:09.418Z,8.67
2017-05-01T00:04:13.734Z,8.63
2017-05-01T00:04:18.168Z,8.68
2017-05-01T00:04:22.614Z,8.67
2017-05-01T00:04:26.932Z,8.65
2017-05-01T00:04:31.008Z,8.65
2017-05-01T00:04:35.441Z,8.64
2017-05-01T00:04:39.869Z,8.73
2017-05-01T00:04:44.303Z,8.65
2017-05-01T00:04:48.738Z,8.65
2017-05-01T00:04:53.172Z,8.68
2017-05-01T00:04:57.632Z,8.64
2017-05-01T00:05:02.058Z,8.67
2017-05-01T00:05:06.255Z,8.63
2017-05-01T00:05:10.686Z,8.65
2017-05-01T00:05:15.114Z,8.73
2017-05-01T00:05:19.537Z,8.68
2017-05-01T00:05:23.962Z,8.63
2017-05-01T00:05:28.264Z,8.64
2017-05-01T00:05:32.584Z,8.68
2017-05-01T00:05:37.017Z,8.65
2017-05-01T00:05:41.322Z,8.64
2017-05-01T00:05:45.746Z,8.58
2017-05-01T00:05:50.178Z,8.65
2017-05-01T00:05:54.601Z,8.65
2017-05-01T00:05:59.036Z,8.63
2017-05-01T00:06:03.482Z,8.61
2017-05-01T00:06:07.679Z,8.64
2017-05-01T00:06:11.984Z,8.61
2017-05-01T00:06:16.178Z,8.64
2017-05-01T00:06:20.612Z,8.68
2017-05-01T00:06:24.805Z,8.55
2017-05-01T00:06:29.232Z,8.6
2017-05-01T00:06:33.656Z,8.64
2017-05-01T00:06:37.990Z,8.63
2017-05-01T00:06:42.418Z,8.55
2017-05-01T00:06:46.847Z,8.61
2017-05-01T00:06:51.277Z,8.64
2017-05-01T00:06:55.702Z,8.6
2017-05-01T00:07:00.127Z,8.61
2017-05-01T00:07:04.650Z,8.58
2017-05-01T00:07:08.957Z,8.58
2017-05-01T00:07:13.392Z,8.57
2017-05-01T00:07:17.394Z,8.61
2017-05-01T00:07:21.823Z,8.54
2017-05-01T00:07:26.134Z,8.63
2017-05-01T00:07:30.567Z,8.61
2017-05-01T00:07:34.995Z,8.61
2017-05-01T00:07:39.307Z,8.61
2017-05-01T00:07:43.743Z,8.65
2017-05-01T00:07:48.185Z,8.6
2017-05-01T00:07:52.613Z,8.55
2017-05-01T00:07:57.034Z,8.63
2017-05-01T00:08:01.474Z,8.61
2017-05-01T00:08:05.949Z,8.61
2017-05-01T00:08:10.142Z,8.6
2017-05-01T00:08:14.575Z,8.58
2017-05-01T00:08:18.778Z,8.58
2017-05-01T00:08:23.217Z,8.55
2017-05-01T00:08:27.648Z,8.55
2017-05-01T00:08:32.087Z,8.61
2017-05-01T00:08:36.528Z,8.57
2017-05-01T00:08:40.962Z,8.6
2017-05-01T00:08:45.398Z,8.61
2017-05-01T00:08:49.837Z,8.57
2017-05-01T00:08:54.285Z,8.61
2017-05-01T00:08:58.729Z,8.58
2017-05-01T00:09:03.153Z,8.54
2017-05-01T00:09:07.582Z,8.61
2017-05-01T00:09:11.893Z,8.54
2017-05-01T00:09:16.209Z,8.55
2017-05-01T00:09:20.634Z,8.65
2017-05-01T00:09:25.057Z,8.63
2017-05-01T00:09:29.500Z,8.63
2017-05-01T00:09:33.972Z,8.61
2017-05-01T00:09:38.404Z,8.6
2017-05-01T00:09:42.835Z,8.58
2017-05-01T00:09:47.263Z,8.57
2017-05-01T00:09:51.703Z,8.6
2017-05-01T00:09:56.139Z,8.58
2017-05-01T00:10:00.449Z,8.61
2017-05-01T00:10:04.878Z,8.6
2017-05-01T00:10:09.191Z,8.54
2017-05-01T00:10:13.622Z,8.55
2017-05-01T00:10:18.048Z,8.61
2017-05-01T00:10:22.384Z,8.55
2017-05-01T00:10:26.817Z,8.6
2017-05-01T00:10:31.246Z,8.55
2017-05-01T00:10:35.667Z,8.55
2017-05-01T00:10:39.984Z,8.6
2017-05-01T00:10:44.451Z,8.57
2017-05-01T00:10:48.879Z,8.6
2017-05-01T00:10:53.190Z,8.57
2017-05-01T00:10:57.620Z,8.5
2017-05-01T00:11:01.735Z,8.57
2017-05-01T00:11:06.261Z,8.55
2017-05-01T00:11:10.564Z,8.57
2017-05-01T00:11:14.880Z,8.63
2017-05-01T00:11:19.343Z,8.61
2017-05-01T00:11:23.766Z,8.57
2017-05-01T00:11:28.073Z,8.57
2017-05-01T00:11:32.387Z,8.58
2017-05-01T00:11:36.820Z,8.54
2017-05-01T00:11:41.125Z,8.5
2017-05-01T00:11:45.432Z,8.55
2017-05-01T00:11:49.865Z,8.61
2017-05-01T00:11:54.305Z,8.6
2017-05-01T00:11:58.614Z,8.54
2017-05-01T00:12:03.039Z,8.67
2017-05-01T00:12:07.462Z,8.55
2017-05-01T00:12:11.665Z,8.6
2017-05-01T00:12:16.121Z,8.58
2017-05-01T00:12:20.552Z,8.58
2017-05-01T00:12:24.864Z,8.57
2017-05-01T00:12:29.324Z,8.6
2017-05-01T00:12:33.753Z,8.57
2017-05-01T00:12:38.069Z,8.58
2017-05-01T00:12:42.375Z,8.61
2017-05-01T00:12:46.808Z,8.61
2017-05-01T00:12:51.291Z,8.55
2017-05-01T00:12:55.621Z,8.6
2017-05-01T00:13:00.054Z,8.54
2017-05-01T00:13:04.519Z,8.55
2017-05-01T00:13:08.839Z,8.58
2017-05-01T00:13:12.926Z,8.58
2017-05-01T00:13:17.241Z,8.55
2017-05-01T00:13:21.673Z,8.58
2017-05-01T00:13:26.146Z,8.6
2017-05-01T00:13:30.457Z,8.6
2017-05-01T00:13:34.883Z,8.57
2017-05-01T00:13:39.313Z,8.65
2017-05-01T00:13:43.745Z,8.6
2017-05-01T00:13:48.173Z,8.58
2017-05-01T00:13:52.596Z,8.55
2017-05-01T00:13:57.038Z,8.55
2017-05-01T00:14:01.770Z,8.57
2017-05-01T00:14:06.202Z,8.6
2017-05-01T00:14:10.512Z,8.57
2017-05-01T00:14:14.767Z,8.6
2017-05-01T00:14:19.206Z,8.58
2017-05-01T00:14:23.631Z,8.54
2017-05-01T00:14:28.064Z,8.57
2017-05-01T00:14:32.516Z,8.58
2017-05-01T00:14:36.944Z,8.52
2017-05-01T00:14:41.372Z,8.6
2017-05-01T00:14:45.796Z,8.58
2017-05-01T00:14:50.228Z,8.57
2017-05-01T00:14:54.659Z,8.58
2017-05-01T00:14:58.976Z,8.6
2017-05-01T00:15:03.406Z,8.64
2017-05-01T00:15:07.756Z,8.6
2017-05-01T00:15:11.945Z,8.58
2017-05-01T00:15:16.255Z,8.67
2017-05-01T00:15:20.685Z,8.6
2017-05-01T00:15:25.116Z,8.57
2017-05-01T00:15:29.538Z,8.58
2017-05-01T00:15:33.963Z,8.57
2017-05-01T00:15:38.394Z,8.54
2017-05-01T00:15:42.843Z,8.52
2017-05-01T00:15:47.268Z,8.54
2017-05-01T00:15:51.580Z,8.54
2017-05-01T00:15:56.011Z,8.58
2017-05-01T00:16:00.444Z,8.55
2017-05-01T00:16:05.121Z,8.57
2017-05-01T00:16:09.195Z,8.58
2017-05-01T00:16:13.626Z,8.55
2017-05-01T00:16:18.057Z,8.52
2017-05-01T00:16:22.488Z,8.6
2017-05-01T00:16:26.916Z,8.54
2017-05-01T00:16:31.231Z,8.52
2017-05-01T00:16:35.697Z,8.55
2017-05-01T00:16:40.020Z,8.52
2017-05-01T00:16:44.329Z,8.54
2017-05-01T00:16:48.642Z,8.55
2017-05-01T00:16:53.072Z,8.54
2017-05-01T00:16:57.501Z,8.54
2017-05-01T00:17:01.921Z,8.52
2017-05-01T00:17:06.233Z,8.61
2017-05-01T00:17:10.424Z,8.55
2017-05-01T00:17:14.851Z,8.55
2017-05-01T00:17:19.294Z,8.55
2017-05-01T00:17:23.764Z,8.58
2017-05-01T00:17:28.188Z,8.57
2017-05-01T00:17:32.625Z,8.52
2017-05-01T00:17:37.061Z,8.6
2017-05-01T00:17:41.386Z,8.5
2017-05-01T00:17:45.573Z,8.57
2017-05-01T00:17:49.895Z,8.52
2017-05-01T00:17:54.326Z,8.6
2017-05-01T00:17:58.757Z,8.52
2017-05-01T00:18:03.486Z,8.6
2017-05-01T00:18:07.910Z,8.5
2017-05-01T00:18:12.108Z,8.52
2017-05-01T00:18:16.420Z,8.47
2017-05-01T00:18:20.858Z,8.5
2017-05-01T00:18:25.283Z,8.49
2017-05-01T00:18:29.719Z,8.57
2017-05-01T00:18:34.151Z,8.55
2017-05-01T00:18:38.592Z,8.52
2017-05-01T00:18:42.685Z,8.55
2017-05-01T00:18:47.120Z,8.47
2017-05-01T00:18:51.443Z,8.57
2017-05-01T00:18:55.877Z,8.5
2017-05-01T00:19:00.319Z,8.49
2017-05-01T00:19:04.803Z,8.5
2017-05-01T00:19:09.236Z,8.49
2017-05-01T00:19:13.539Z,8.47
2017-05-01T00:19:17.857Z,8.52
2017-05-01T00:19:22.307Z,8.46
2017-05-01T00:19:26.739Z,8.49
2017-05-01T00:19:31.162Z,8.46
2017-05-01T00:19:35.597Z,8.46
2017-05-01T00:19:40.024Z,8.49
2017-05-01T00:19:44.449Z,8.47
2017-05-01T00:19:48.873Z,8.45
2017-05-01T00:19:53.184Z,8.52
2017-05-01T00:19:57.621Z,8.47
2017-05-01T00:20:02.053Z,8.49
2017-05-01T00:20:06.364Z,8.43
2017-05-01T00:20:10.678Z,8.45
2017-05-01T00:20:14.874Z,8.45
2017-05-01T00:20:19.302Z,8.54
2017-05-01T00:20:23.728Z,8.5
2017-05-01T00:20:28.161Z,8.4
2017-05-01T00:20:32.593Z,8.49
2017-05-01T00:20:36.901Z,8.49
2017-05-01T00:20:41.217Z,8.39
2017-05-01T00:20:45.653Z,8.4
2017-05-01T00:20:49.968Z,8.37
2017-05-01T00:20:54.395Z,8.43
2017-05-01T00:20:58.820Z,8.46
2017-05-01T00:21:03.352Z,8.36
2017-05-01T00:21:07.783Z,8.42
2017-05-01T00:21:12.096Z,8.43
2017-05-01T00:21:16.526Z,8.43
2017-05-01T00:21:20.959Z,8.43
2017-05-01T00:21:25.394Z,8.46
2017-05-01T00:21:29.696Z,8.42
2017-05-01T00:21:34.003Z,8.45
2017-05-01T00:21:38.430Z,8.37
2017-05-01T00:21:42.618Z,8.4
2017-05-01T00:21:47.050Z,8.4
2017-05-01T00:21:51.479Z,8.42
2017-05-01T00:21:55.907Z,8.47
2017-05-01T00:22:00.332Z,8.36
2017-05-01T00:22:04.644Z,8.4
2017-05-01T00:22:09.074Z,8.4
2017-05-01T00:22:13.390Z,8.46
2017-05-01T00:22:17.585Z,8.4
2017-05-01T00:22:22.107Z,8.46
2017-05-01T00:22:26.555Z,8.34
2017-05-01T00:22:30.989Z,8.42
2017-05-01T00:22:35.419Z,8.36
2017-05-01T00:22:39.840Z,8.45
2017-05-01T00:22:44.265Z,8.43
2017-05-01T00:22:48.702Z,8.46
2017-05-01T00:22:53.137Z,8.42
2017-05-01T00:22:57.574Z,8.4
2017-05-01T00:23:02.001Z,8.45
2017-05-01T00:23:06.442Z,8.42
2017-05-01T00:23:10.877Z,8.43
2017-05-01T00:23:15.077Z,8.42
2017-05-01T00:23:19.443Z,8.43
2017-05-01T00:23:23.877Z,8.43
2017-05-01T00:23:28.312Z,8.34
2017-05-01T00:23:32.756Z,8.4
2017-05-01T00:23:37.191Z,8.43
2017-05-01T00:23:41.617Z,8.39
2017-05-01T00:23:45.933Z,8.43
2017-05-01T00:23:50.374Z,8.42
2017-05-01T00:23:54.862Z,8.43
2017-05-01T00:23:59.302Z,8.42
2017-05-01T00:24:03.728Z,8.45
2017-05-01T00:24:08.166Z,8.42
2017-05-01T00:24:12.407Z,8.43
2017-05-01T00:24:16.830Z,8.36
2017-05-01T00:24:21.146Z,8.43
2017-05-01T00:24:25.455Z,8.4
2017-05-01T00:24:29.903Z,8.4
2017-05-01T00:24:34.324Z,8.43
2017-05-01T00:24:38.754Z,8.43
2017-05-01T00:24:43.192Z,8.45
2017-05-01T00:24:47.619Z,8.42
2017-05-01T00:24:52.047Z,8.39
2017-05-01T00:24:56.482Z,8.42
2017-05-01T00:25:00.918Z,8.42
2017-05-01T00:25:05.588Z,8.43
2017-05-01T00:25:10.017Z,8.42
2017-05-01T00:25:14.328Z,8.42
2017-05-01T00:25:18.756Z,8.4
2017-05-01T00:25:23.190Z,8.4
2017-05-01T00:25:27.613Z,8.42
2017-05-01T00:25:32.036Z,8.43
2017-05-01T00:25:36.466Z,8.37
2017-05-01T00:25:40.932Z,8.42
2017-05-01T00:25:45.356Z,8.39
2017-05-01T00:25:49.791Z,8.42
2017-05-01T00:25:54.222Z,8.39
2017-05-01T00:25:58.647Z,8.39
2017-05-01T00:26:03.071Z,8.45
2017-05-01T00:26:07.528Z,8.42
2017-05-01T00:26:11.718Z,8.46
2017-05-01T00:26:15.918Z,8.39
2017-05-01T00:26:20.353Z,8.34
2017-05-01T00:26:24.666Z,8.43
2017-05-01T00:26:29.095Z,8.45
2017-05-01T00:26:33.530Z,8.46
2017-05-01T00:26:37.963Z,8.43
2017-05-01T00:26:42.396Z,8.4
2017-05-01T00:26:46.824Z,8.39
2017-05-01T00:26:51.255Z,8.42
2017-05-01T00:26:55.690Z,8.43
2017-05-01T00:27:00.001Z,8.4
2017-05-01T00:27:04.581Z,8.39
2017-05-01T00:27:09.007Z,8.37
2017-05-01T00:27:13.327Z,8.34
2017-05-01T00:27:17.522Z,8.42
2017-05-01T00:27:21.953Z,8.43
2017-05-01T00:27:26.271Z,8.4
2017-05-01T00:27:30.705Z,8.4
2017-05-01T00:27:35.128Z,8.42
2017-05-01T00:27:39.441Z,8.45
2017-05-01T00:27:43.873Z,8.43
2017-05-01T00:27:48.185Z,8.43
2017-05-01T00:27:52.615Z,8.39
2017-05-01T00:27:57.051Z,8.37
2017-05-01T00:28:01.484Z,8.42
2017-05-01T00:28:05.709Z,8.42
2017-05-01T00:28:09.909Z,8.39
2017-05-01T00:28:14.338Z,8.45
2017-05-01T00:28:18.662Z,8.42
2017-05-01T00:28:22.861Z,8.43
2017-05-01T00:28:27.293Z,8.45
2017-05-01T00:28:31.724Z,8.45
2017-05-01T00:28:36.055Z,8.37
2017-05-01T00:28:40.488Z,8.45
2017-05-01T00:28:44.921Z,8.46
2017-05-01T00:28:49.352Z,8.45
2017-05-01T00:28:53.785Z,8.46
2017-05-01T00:28:58.222Z,8.42
2017-05-01T00:29:02.797Z,8.43
2017-05-01T00:29:07.106Z,8.43
2017-05-01T00:29:11.536Z,8.43
2017-05-01T00:29:15.888Z,8.46
2017-05-01T00:29:20.315Z,8.43
2017-05-01T00:29:24.627Z,8.45
2017-05-01T00:29:29.066Z,8.43
2017-05-01T00:29:33.495Z,8.46
2017-05-01T00:29:37.929Z,8.39
2017-05-01T00:29:42.124Z,8.42
2017-05-01T00:29:46.556Z,8.46
2017-05-01T00:29:50.984Z,8.32
2017-05-01T00:29:55.419Z,8.4
2017-05-01T00:29:59.851Z,8.43
2017-05-01T00:30:04.163Z,8.43
2017-05-01T00:30:08.481Z,8.43
2017-05-01T00:30:12.550Z,8.39
2017-05-01T00:30:16.975Z,8.42
2017-05-01T00:30:21.397Z,8.45
2017-05-01T00:30:25.709Z,8.45
2017-05-01T00:30:30.134Z,8.47
2017-05-01T00:30:34.560Z,8.46
2017-05-01T00:30:38.877Z,8.45
2017-05-01T00:30:43.312Z,8.43
2017-05-01T00:30:47.622Z,8.43
2017-05-01T00:30:51.937Z,8.39
2017-05-01T00:30:56.247Z,8.45
2017-05-01T00:31:00.686Z,8.43
2017-05-01T00:31:05.209Z,8.4
2017-05-01T00:31:09.519Z,8.47
2017-05-01T00:31:13.825Z,8.4
2017-05-01T00:31:18.185Z,8.43
2017-05-01T00:31:22.613Z,8.39
2017-05-01T00:31:26.808Z,8.42
2017-05-01T00:31:31.242Z,8.4
2017-05-01T00:31:35.667Z,8.46
2017-05-01T00:31:39.974Z,8.39
2017-05-01T00:31:44.409Z,8.43
2017-05-01T00:31:48.843Z,8.4
2017-05-01T00:31:53.267Z,8.47
2017-05-01T00:31:57.469Z,8.36
2017-05-01T00:32:01.903Z,8.42
2017-05-01T00:32:06.221Z,8.37
2017-05-01T00:32:10.645Z,8.43
2017-05-01T00:32:14.953Z,8.39
2017-05-01T00:32:19.266Z,8.34
2017-05-01T00:32:23.737Z,8.43
2017-05-01T00:32:28.042Z,8.46
2017-05-01T00:32:32.478Z,8.46
2017-05-01T00:32:36.910Z,8.42
2017-05-01T00:32:41.108Z,8.4
2017-05-01T00:32:45.553Z,8.43
2017-05-01T00:32:49.871Z,8.46
2017-05-01T00:32:54.188Z,8.43
2017-05-01T00:32:58.512Z,8.45
2017-05-01T00:33:03.143Z,8.46
2017-05-01T00:33:07.575Z,8.43
2017-05-01T00:33:11.886Z,8.46
2017-05-01T00:33:16.217Z,8.47
2017-05-01T00:33:20.650Z,8.46
2017-05-01T00:33:25.083Z,8.4
2017-05-01T00:33:29.516Z,8.43
2017-05-01T00:33:33.946Z,8.43
2017-05-01T00:33:38.388Z,8.4
2017-05-01T00:33:42.853Z,8.45
2017-05-01T00:33:47.279Z,8.4
2017-05-01T00:33:51.357Z,8.39
2017-05-01T00:33:55.797Z,8.39
2017-05-01T00:34:00.237Z,8.43
2017-05-01T00:34:04.961Z,8.43
2017-05-01T00:34:09.162Z,8.32
2017-05-01T00:34:13.480Z,8.43
2017-05-01T00:34:17.916Z,8.45
2017-05-01T00:34:22.346Z,8.4
2017-05-01T00:34:26.783Z,8.36
2017-05-01T00:34:31.215Z,8.46
2017-05-01T00:34:35.643Z,8.42
2017-05-01T00:34:40.069Z,8.43
2017-05-01T00:34:44.501Z,8.4
2017-05-01T00:34:48.935Z,8.47
2017-05-01T00:34:53.362Z,8.46
2017-05-01T00:34:57.686Z,8.43
2017-05-01T00:35:02.119Z,8.46
2017-05-01T00:35:06.462Z,8.43
2017-05-01T00:35:10.891Z,8.43
2017-05-01T00:35:15.076Z,8.43
2017-05-01T00:35:19.520Z,8.43
2017-05-01T00:35:23.951Z,8.45
2017-05-01T00:35:28.385Z,8.36
2017-05-01T00:35:32.590Z,8.43
2017-05-01T00:35:37.027Z,8.37
2017-05-01T00:35:41.449Z,8.39
2017-05-01T00:35:45.758Z,8.43
2017-05-01T00:35:50.197Z,8.43
2017-05-01T00:35:54.625Z,8.43
2017-05-01T00:35:58.940Z,8.43
2017-05-01T00:36:03.370Z,8.31
2017-05-01T00:36:07.728Z,8.46
2017-05-01T00:36:12.155Z,8.37
2017-05-01T00:36:16.344Z,8.37
2017-05-01T00:36:20.782Z,8.43
2017-05-01T00:36:25.213Z,8.43
2017-05-01T00:36:29.648Z,8.43
2017-05-01T00:36:34.076Z,8.46
2017-05-01T00:36:38.271Z,8.43
2017-05-01T00:36:42.701Z,8.39
2017-05-01T00:36:47.128Z,8.45
2017-05-01T00:36:51.556Z,8.37
2017-05-01T00:36:55.990Z,8.43
2017-05-01T00:37:00.417Z,8.45
2017-05-01T00:37:04.830Z,8.42
2017-05-01T00:37:09.141Z,8.39
2017-05-01T00:37:13.453Z,8.45
2017-05-01T00:37:17.892Z,8.45
2017-05-01T00:37:22.365Z,8.42
2017-05-01T00:37:26.801Z,8.34
2017-05-01T00:37:31.236Z,8.39
2017-05-01T00:37:35.672Z,8.36
2017-05-01T00:37:39.867Z,8.39
2017-05-01T00:37:44.307Z,8.34
2017-05-01T00:37:48.746Z,8.4
2017-05-01T00:37:53.058Z,8.45
2017-05-01T00:37:57.489Z,8.4
2017-05-01T00:38:01.911Z,8.39
2017-05-01T00:38:06.227Z,8.37
2017-05-01T00:38:10.539Z,8.37
2017-05-01T00:38:14.743Z,8.36
2017-05-01T00:38:19.205Z,8.37
2017-05-01T00:38:23.633Z,8.37
2017-05-01T00:38:28.061Z,8.32
2017-05-01T00:38:32.275Z,8.32
2017-05-01T00:38:36.759Z,8.4
2017-05-01T00:38:41.063Z,8.37
2017-05-01T00:38:45.380Z,8.42
2017-05-01T00:38:49.820Z,8.39
2017-05-01T00:38:54.249Z,8.37
2017-05-01T00:38:58.690Z,8.37
2017-05-01T00:39:03.378Z,8.39
2017-05-01T00:39:07.817Z,8.39
2017-05-01T00:39:12.136Z,8.4
2017-05-01T00:39:16.454Z,8.39
2017-05-01T00:39:20.922Z,8.37
2017-05-01T00:39:25.349Z,8.4
2017-05-01T00:39:29.781Z,8.36
2017-05-01T00:39:33.968Z,8.36
2017-05-01T00:39:38.285Z,8.34
2017-05-01T00:39:42.765Z,8.37
2017-05-01T00:39:47.190Z,8.29
2017-05-01T00:39:51.619Z,8.4
2017-05-01T00:39:56.073Z,8.45
2017-05-01T00:40:00.504Z,8.37
2017-05-01T00:40:05.062Z,8.34
2017-05-01T00:40:09.371Z,8.4
2017-05-01T00:40:13.683Z,8.34
2017-05-01T00:40:17.991Z,8.4
2017-05-01T00:40:22.294Z,8.37
2017-05-01T00:40:26.720Z,8.28
2017-05-01T00:40:31.148Z,8.4
2017-05-01T00:40:35.576Z,8.27
2017-05-01T00:40:39.885Z,8.25
2017-05-01T00:40:44.193Z,8.29
2017-05-01T00:40:48.630Z,8.28
2017-05-01T00:40:53.055Z,8.36
2017-05-01T00:40:57.484Z,8.27
2017-05-01T00:41:01.904Z,8.34
2017-05-01T00:41:06.215Z,8.27
2017-05-01T00:41:10.536Z,8.27
2017-05-01T00:41:14.967Z,8.27
2017-05-01T00:41:19.395Z,8.37
2017-05-01T00:41:23.818Z,8.29
2017-05-01T00:41:28.013Z,8.28
2017-05-01T00:41:32.436Z,8.25
2017-05-01T00:41:36.748Z,8.31
2017-05-01T00:41:41.175Z,8.28
2017-05-01T00:41:45.606Z,8.25
2017-05-01T00:41:49.913Z,8.34
2017-05-01T00:41:54.337Z,8.28
2017-05-01T00:41:58.766Z,8.24
2017-05-01T00:42:03.194Z,8.27
2017-05-01T00:42:07.620Z,8.32
2017-05-01T00:42:12.047Z,8.28
2017-05-01T00:42:16.371Z,8.29
2017-05-01T00:42:20.813Z,8.29
2017-05-01T00:42:25.120Z,8.31
2017-05-01T00:42:29.438Z,8.24
2017-05-01T00:42:33.870Z,8.24
2017-05-01T00:42:38.193Z,8.32
2017-05-01T00:42:42.617Z,8.32
2017-05-01T00:42:46.936Z,8.29
2017-05-01T00:42:51.368Z,8.32
2017-05-01T00:42:55.689Z,8.29
2017-05-01T00:43:00.007Z,8.29
2017-05-01T00:43:04.789Z,8.28
2017-05-01T00:43:09.211Z,8.34
2017-05-01T00:43:13.539Z,8.28
2017-05-01T00:43:17.859Z,8.28
2017-05-01T00:43:22.173Z,8.25
2017-05-01T00:43:26.606Z,8.29
2017-05-01T00:43:31.037Z,8.25
2017-05-01T00:43:35.470Z,8.31
2017-05-01T00:43:39.776Z,8.32
2017-05-01T00:43:44.205Z,8.27
2017-05-01T00:43:48.631Z,8.28
2017-05-01T00:43:53.100Z,8.27
2017-05-01T00:43:57.415Z,8.28
2017-05-01T00:44:02.159Z,8.31
2017-05-01T00:44:06.599Z,8.32
2017-05-01T00:44:10.821Z,8.31
2017-05-01T00:44:15.020Z,8.31
2017-05-01T00:44:19.460Z,8.31
2017-05-01T00:44:23.770Z,8.34
2017-05-01T00:44:28.252Z,8.31
2017-05-01T00:44:32.682Z,8.29
2017-05-01T00:44:36.993Z,8.31
2017-05-01T00:44:41.426Z,8.31
2017-05-01T00:44:45.739Z,8.31
2017-05-01T00:44:50.160Z,8.25
2017-05-01T00:44:54.591Z,8.21
2017-05-01T00:44:59.030Z,8.29
2017-05-01T00:45:03.468Z,8.27
2017-05-01T00:45:07.779Z,8.25
2017-05-01T00:45:12.083Z,8.28
2017-05-01T00:45:16.278Z,8.29
2017-05-01T00:45:20.743Z,8.31
2017-05-01T00:45:25.173Z,8.27
2017-05-01T00:45:29.599Z,8.31
2017-05-01T00:45:34.038Z,8.29
2017-05-01T00:45:38.475Z,8.24
2017-05-01T00:45:42.902Z,8.34
2017-05-01T00:45:47.331Z,8.29
2017-05-01T00:45:51.646Z,8.28
2017-05-01T00:45:55.966Z,8.28
2017-05-01T00:46:00.396Z,8.27
2017-05-01T00:46:05.078Z,8.28
2017-05-01T00:46:09.392Z,8.32
2017-05-01T00:46:13.740Z,8.32
2017-05-01T00:46:17.935Z,8.34
2017-05-01T00:46:22.362Z,8.29
2017-05-01T00:46:26.793Z,8.22
2017-05-01T00:46:31.117Z,8.28
2017-05-01T00:46:35.544Z,8.28
2017-05-01T00:46:39.968Z,8.29
2017-05-01T00:46:44.405Z,8.28
2017-05-01T00:46:48.748Z,8.2
2017-05-01T00:46:53.176Z,8.24
2017-05-01T00:46:57.602Z,8.24
2017-05-01T00:47:01.908Z,8.29
2017-05-01T00:47:06.221Z,8.31
2017-05-01T00:47:10.530Z,8.25
2017-05-01T00:47:14.837Z,8.27
2017-05-01T00:47:19.025Z,8.32
2017-05-01T00:47:23.454Z,8.21
2017-05-01T00:47:27.881Z,8.25
2017-05-01T00:47:32.303Z,8.24
2017-05-01T00:47:36.728Z,8.28
2017-05-01T00:47:41.049Z,8.31
2017-05-01T00:47:45.477Z,8.28
2017-05-01T00:47:49.907Z,8.25
2017-05-01T00:47:54.337Z,8.24
2017-05-01T00:47:58.785Z,8.25
2017-05-01T00:48:03.218Z,8.25
2017-05-01T00:48:07.641Z,8.25
2017-05-01T00:48:11.951Z,8.28
2017-05-01T00:48:15.918Z,8.28
2017-05-01T00:48:20.397Z,8.25
2017-05-01T00:48:24.709Z,8.24
2017-05-01T00:48:29.146Z,8.22
2017-05-01T00:48:33.581Z,8.32
2017-05-01T00:48:38.013Z,8.2
2017-05-01T00:48:42.350Z,8.17
2017-05-01T00:48:46.781Z,8.25
2017-05-01T00:48:51.092Z,8.22
2017-05-01T00:48:55.534Z,8.24
2017-05-01T00:48:59.969Z,8.14
2017-05-01T00:49:04.399Z,8.25
2017-05-01T00:49:08.725Z,8.21
2017-05-01T00:49:12.805Z,8.21
2017-05-01T00:49:17.129Z,8.18
2017-05-01T00:49:21.556Z,8.24
2017-05-01T00:49:25.984Z,8.17
2017-05-01T00:49:30.421Z,8.17
2017-05-01T00:49:34.846Z,8.27
2017-05-01T00:49:39.273Z,8.17
2017-05-01T00:49:43.469Z,8.22
2017-05-01T00:49:47.897Z,8.21
2017-05-01T00:49:52.369Z,8.32
2017-05-01T00:49:56.806Z,8.21
2017-05-01T00:50:01.230Z,8.24
2017-05-01T00:50:05.709Z,8.18
2017-05-01T00:50:09.902Z,8.29
2017-05-01T00:50:14.091Z,8.25
2017-05-01T00:50:18.523Z,8.21
2017-05-01T00:50:22.842Z,8.21
2017-05-01T00:50:27.150Z,8.18
2017-05-01T00:50:31.580Z,8.21
2017-05-01T00:50:36.004Z,8.21
2017-05-01T00:50:40.324Z,8.2
2017-05-01T00:50:44.673Z,8.28
2017-05-01T00:50:49.110Z,8.2
2017-05-01T00:50:53.536Z,8.22
2017-05-01T00:50:57.967Z,8.21
2017-05-01T00:51:02.548Z,8.28
2017-05-01T00:51:06.856Z,8.27
2017-05-01T00:51:11.295Z,8.24
2017-05-01T00:51:15.490Z,8.21
2017-05-01T00:51:19.922Z,8.22
2017-05-01T00:51:24.348Z,8.25
2017-05-01T00:51:28.666Z,8.2
2017-05-01T00:51:33.094Z,8.24
2017-05-01T00:51:37.526Z,8.24
2017-05-01T00:51:41.957Z,8.21
2017-05-01T00:51:46.271Z,8.14
2017-05-01T00:51:50.583Z,8.27
2017-05-01T00:51:55.006Z,8.21
2017-05-01T00:51:59.321Z,8.14
2017-05-01T00:52:03.777Z,8.17
2017-05-01T00:52:07.965Z,8.21
2017-05-01T00:52:12.408Z,8.24
2017-05-01T00:52:16.748Z,8.2
2017-05-01T00:52:21.190Z,8.2
2017-05-01T00:52:25.827Z,8.21
2017-05-01T00:52:30.263Z,8.25
2017-05-01T00:52:34.692Z,8.21
2017-05-01T00:52:39.046Z,8.24
2017-05-01T00:52:43.354Z,8.18
2017-05-01T00:52:47.669Z,8.2
2017-05-01T00:52:52.100Z,8.2
2017-05-01T00:52:56.547Z,8.22
2017-05-01T00:53:00.866Z,8.13
2017-05-01T00:53:05.389Z,8.2
2017-05-01T00:53:09.821Z,8.17
2017-05-01T00:53:14.271Z,8.13
2017-05-01T00:53:18.588Z,8.2
2017-05-01T00:53:23.018Z,8.1
2017-05-01T00:53:27.445Z,8.22
2017-05-01T00:53:31.883Z,8.18
2017-05-01T00:53:36.313Z,8.21
2017-05-01T00:53:40.624Z,8.22
2017-05-01T00:53:44.927Z,8.14
2017-05-01T00:53:49.369Z,8.14
2017-05-01T00:53:53.801Z,8.21
2017-05-01T00:53:58.139Z,8.25
2017-05-01T00:54:02.570Z,8.22
2017-05-01T00:54:07.056Z,8.18
2017-05-01T00:54:11.248Z,8.13
2017-05-01T00:54:15.686Z,8.14
2017-05-01T00:54:20.130Z,8.17
2017-05-01T00:54:24.562Z,8.14
2017-05-01T00:54:28.988Z,8.14
2017-05-01T00:54:33.422Z,8.18
2017-05-01T00:54:37.847Z,8.13
2017-05-01T00:54:42.283Z,8.14
2017-05-01T00:54:46.596Z,8.14
2017-05-01T00:54:50.783Z,8.17
2017-05-01T00:54:55.217Z,8.17
2017-05-01T00:54:59.709Z,8.14
2017-05-01T00:55:04.235Z,8.09
2017-05-01T00:55:08.672Z,8.24
2017-05-01T00:55:12.759Z,8.1
2017-05-01T00:55:17.190Z,8.09
2017-05-01T00:55:21.609Z,8.09
2017-05-01T00:55:25.915Z,8.07
2017-05-01T00:55:30.350Z,8.1
2017-05-01T00:55:34.789Z,8.17
2017-05-01T00:55:39.221Z,8.03
2017-05-01T00:55:43.527Z,8.1
2017-05-01T00:55:47.871Z,8.2
2017-05-01T00:55:52.297Z,8.12
2017-05-01T00:55:56.723Z,8.1
2017-05-01T00:56:01.050Z,8.09
2017-05-01T00:56:05.631Z,8.1
2017-05-01T00:56:09.951Z,8.09
2017-05-01T00:56:14.260Z,8.09
2017-05-01T00:56:18.690Z,8.1
2017-05-01T00:56:23.160Z,7.96
2017-05-01T00:56:27.590Z,8.13
2017-05-01T00:56:32.027Z,8.06
2017-05-01T00:56:36.454Z,8.12
2017-05-01T00:56:40.884Z,8.12
2017-05-01T00:56:45.196Z,8.12
2017-05-01T00:56:49.627Z,7.96
2017-05-01T00:56:54.062Z,8.09
2017-05-01T00:56:58.489Z,8.07
2017-05-01T00:57:03.215Z,8.06
2017-05-01T00:57:07.534Z,8.12
2017-05-01T00:57:11.729Z,8.09
2017-05-01T00:57:16.038Z,8.12
2017-05-01T00:57:20.473Z,8.12
2017-05-01T00:57:24.785Z,8.09
2017-05-01T00:57:29.209Z,8.12
2017-05-01T00:57:33.638Z,8.12
2017-05-01T00:57:38.069Z,7.99
2017-05-01T00:57:42.378Z,8.13
2017-05-01T00:57:46.711Z,8.03
2017-05-01T00:57:51.164Z,8.1
2017-05-01T00:57:55.605Z,7.96
2017-05-01T00:58:00.047Z,8.1
2017-05-01T00:58:04.477Z,8.07
2017-05-01T00:58:08.909Z,8.06
2017-05-01T00:58:12.989Z,8.12
2017-05-01T00:58:17.418Z,8.07
2017-05-01T00:58:21.854Z,8.09
2017-05-01T00:58:26.300Z,8.09
2017-05-01T00:58:30.739Z,8.07
2017-05-01T00:58:35.169Z,8.09
2017-05-01T00:58:39.370Z,8.06